createdAt,value
2022-07-25T00:00:04.099Z,98587.69
2022-07-25T00:00:17.343Z,98588.38
2022-07-25T00:00:30.841Z,98593.66
2022-07-25T00:00:44.558Z,98587.38
2022-07-25T00:00:57.414Z,98582.78
2022-07-25T00:01:13.328Z,98588.88
2022-07-25T00:01:26.904Z,98593.31
2022-07-25T00:01:43.396Z,98582.78
2022-07-25T00:01:56.861Z,98588.38
2022-07-25T00:02:10.552Z,98589.41
2022-07-25T00:02:23.530Z,98586.97
2022-07-25T00:02:36.473Z,98582.53
2022-07-25T00:02:49.558Z,98582.53
2022-07-25T00:03:02.771Z,98584.25
2022-07-25T00:03:18.523Z,98579.66
2022-07-25T00:03:32.331Z,98582.53
2022-07-25T00:03:45.169Z,98581.53
2022-07-25T00:03:58.063Z,98581.53
2022-07-25T00:04:12.179Z,98581.69
2022-07-25T00:04:25.847Z,98585.44
2022-07-25T00:04:38.894Z,98577.44
2022-07-25T00:04:52.078Z,98582.87
2022-07-25T00:05:09.323Z,98579.50
2022-07-25T00:05:22.244Z,98579.97
2022-07-25T00:05:39.054Z,98585.91
2022-07-25T00:05:52.029Z,98577.41
2022-07-25T00:06:05.179Z,98582.34
2022-07-25T00:06:18.231Z,98581.84
2022-07-25T00:06:31.178Z,98589.69
2022-07-25T00:06:45.054Z,98584.25
2022-07-25T00:06:58.055Z,98583.22
2022-07-25T00:07:12.020Z,98585.78
2022-07-25T00:07:24.863Z,98581.19
2022-07-25T00:07:37.773Z,98586.44
2022-07-25T00:07:50.798Z,98585.44
2022-07-25T00:08:03.828Z,98586.13
2022-07-25T00:08:16.886Z,98589.69
2022-07-25T00:08:29.725Z,98583.41
2022-07-25T00:08:44.538Z,98583.25
2022-07-25T00:08:57.380Z,98582.38
2022-07-25T00:09:10.503Z,98586.97
2022-07-25T00:09:23.561Z,98585.25
2022-07-25T00:09:36.568Z,98581.69
2022-07-25T00:09:54.445Z,98588.66
2022-07-25T00:10:07.999Z,98580.47
2022-07-25T00:10:20.902Z,98580.12
2022-07-25T00:10:33.943Z,98583.53
2022-07-25T00:10:47.383Z,98580.81
2022-07-25T00:11:00.283Z,98586.13
2022-07-25T00:11:13.285Z,98582.50
2022-07-25T00:11:26.147Z,98582.38
2022-07-25T00:11:38.999Z,98580.69
2022-07-25T00:11:51.894Z,98584.25
2022-07-25T00:12:04.866Z,98586.13
2022-07-25T00:12:19.281Z,98589.81
2022-07-25T00:12:32.610Z,98581.53
2022-07-25T00:12:45.554Z,98582.19
2022-07-25T00:13:00.287Z,98582.69
2022-07-25T00:13:13.604Z,98580.34
2022-07-25T00:13:26.467Z,98583.56
2022-07-25T00:13:39.340Z,98582.53
2022-07-25T00:13:52.676Z,98587.81
2022-07-25T00:14:06.059Z,98588.84
2022-07-25T00:14:19.196Z,98588.69
2022-07-25T00:14:32.104Z,98584.41
2022-07-25T00:14:45.442Z,98587.97
2022-07-25T00:14:59.271Z,98585.25
2022-07-25T00:15:12.169Z,98584.59
2022-07-25T00:15:25.135Z,98583.06
2022-07-25T00:15:38.094Z,98586.13
2022-07-25T00:15:51.093Z,98582.69
2022-07-25T00:16:04.427Z,98581.66
2022-07-25T00:16:17.360Z,98585.75
2022-07-25T00:16:30.327Z,98581.50
2022-07-25T00:16:43.725Z,98586.06
2022-07-25T00:17:01.733Z,98578.94
2022-07-25T00:17:14.808Z,98578.78
2022-07-25T00:17:27.677Z,98583.03
2022-07-25T00:17:40.807Z,98583.87
2022-07-25T00:17:53.783Z,98578.28
2022-07-25T00:18:16.252Z,98585.56
2022-07-25T00:18:29.650Z,98582.69
2022-07-25T00:18:42.770Z,98575.56
2022-07-25T00:18:55.702Z,98578.09
2022-07-25T00:19:08.999Z,98579.97
2022-07-25T00:19:22.016Z,98573.69
2022-07-25T00:19:34.947Z,98580.31
2022-07-25T00:19:47.918Z,98578.44
2022-07-25T00:20:01.224Z,98574.19
2022-07-25T00:20:14.351Z,98574.19
2022-07-25T00:20:27.484Z,98578.59
2022-07-25T00:20:40.511Z,98570.47
2022-07-25T00:20:53.522Z,98575.03
2022-07-25T00:21:06.450Z,98575.03
2022-07-25T00:21:19.314Z,98575.03
2022-07-25T00:21:32.746Z,98570.78
2022-07-25T00:21:45.703Z,98577.06
2022-07-25T00:21:58.785Z,98578.78
2022-07-25T00:22:11.678Z,98578.59
2022-07-25T00:22:24.570Z,98573.19
2022-07-25T00:22:37.917Z,98569.94
2022-07-25T00:22:50.789Z,98571.66
2022-07-25T00:23:03.635Z,98577.06
2022-07-25T00:23:16.429Z,98576.22
2022-07-25T00:23:29.393Z,98568.25
2022-07-25T00:23:42.336Z,98572.66
2022-07-25T00:23:55.212Z,98572.00
2022-07-25T00:24:08.701Z,98579.12
2022-07-25T00:24:22.125Z,98575.56
2022-07-25T00:24:35.302Z,98573.69
2022-07-25T00:24:48.288Z,98573.50
2022-07-25T00:25:01.292Z,98576.22
2022-07-25T00:25:14.497Z,98578.56
2022-07-25T00:25:27.541Z,98577.41
2022-07-25T00:25:40.424Z,98577.94
2022-07-25T00:25:53.274Z,98570.78
2022-07-25T00:26:06.227Z,98570.78
2022-07-25T00:26:23.104Z,98570.13
2022-07-25T00:26:39.972Z,98576.41
2022-07-25T00:26:53.325Z,98579.97
2022-07-25T00:27:06.153Z,98577.41
2022-07-25T00:27:22.914Z,98576.06
2022-07-25T00:27:35.779Z,98572.84
2022-07-25T00:27:49.017Z,98575.56
2022-07-25T00:28:01.877Z,98570.97
2022-07-25T00:28:14.787Z,98575.37
2022-07-25T00:28:27.643Z,98573.69
2022-07-25T00:28:40.676Z,98572.66
2022-07-25T00:28:53.556Z,98570.97
2022-07-25T00:29:06.597Z,98570.97
2022-07-25T00:29:19.688Z,98574.53
2022-07-25T00:29:32.758Z,98574.69
2022-07-25T00:29:45.671Z,98572.00
2022-07-25T00:29:58.551Z,98575.37
2022-07-25T00:30:11.662Z,98571.81
2022-07-25T00:30:24.544Z,98572.53
2022-07-25T00:30:37.465Z,98575.06
2022-07-25T00:30:50.485Z,98567.94
2022-07-25T00:31:03.517Z,98573.00
2022-07-25T00:31:16.536Z,98569.28
2022-07-25T00:31:29.525Z,98572.00
2022-07-25T00:31:42.463Z,98570.97
2022-07-25T00:31:55.355Z,98572.66
2022-07-25T00:32:08.394Z,98568.25
2022-07-25T00:32:21.349Z,98567.56
2022-07-25T00:32:35.373Z,98573.00
2022-07-25T00:32:48.427Z,98570.97
2022-07-25T00:33:01.311Z,98569.28
2022-07-25T00:33:14.358Z,98568.41
2022-07-25T00:33:27.273Z,98569.09
2022-07-25T00:33:40.480Z,98577.09
2022-07-25T00:33:53.478Z,98573.38
2022-07-25T00:34:07.205Z,98568.59
2022-07-25T00:34:20.389Z,98566.22
2022-07-25T00:34:33.408Z,98570.78
2022-07-25T00:34:46.262Z,98572.97
2022-07-25T00:34:59.114Z,98563.13
2022-07-25T00:35:12.117Z,98575.69
2022-07-25T00:35:25.121Z,98564.81
2022-07-25T00:35:37.960Z,98569.09
2022-07-25T00:35:50.841Z,98568.94
2022-07-25T00:36:03.906Z,98562.66
2022-07-25T00:36:17.845Z,98571.31
2022-07-25T00:36:30.688Z,98568.59
2022-07-25T00:36:43.662Z,98571.66
2022-07-25T00:36:56.495Z,98572.84
2022-07-25T00:37:09.503Z,98577.72
2022-07-25T00:37:22.372Z,98568.91
2022-07-25T00:37:35.272Z,98576.03
2022-07-25T00:37:48.123Z,98571.28
2022-07-25T00:38:01.079Z,98574.00
2022-07-25T00:38:13.971Z,98574.69
2022-07-25T00:38:26.845Z,98566.56
2022-07-25T00:38:39.742Z,98570.25
2022-07-25T00:38:52.581Z,98570.25
2022-07-25T00:39:05.595Z,98574.00
2022-07-25T00:39:18.464Z,98574.00
2022-07-25T00:39:31.330Z,98567.87
2022-07-25T00:39:44.333Z,98568.03
2022-07-25T00:39:57.176Z,98567.87
2022-07-25T00:40:10.799Z,98569.75
2022-07-25T00:40:23.705Z,98569.56
2022-07-25T00:40:37.108Z,98572.97
2022-07-25T00:40:54.554Z,98569.28
2022-07-25T00:41:08.624Z,98568.25
2022-07-25T00:41:21.931Z,98570.97
2022-07-25T00:41:35.614Z,98570.97
2022-07-25T00:41:48.456Z,98569.41
2022-07-25T00:42:02.345Z,98574.00
2022-07-25T00:42:15.855Z,98573.13
2022-07-25T00:42:28.768Z,98573.31
2022-07-25T00:42:41.696Z,98571.13
2022-07-25T00:42:55.067Z,98566.56
2022-07-25T00:43:08.073Z,98573.69
2022-07-25T00:43:20.954Z,98573.69
2022-07-25T00:43:33.823Z,98575.37
2022-07-25T00:43:46.934Z,98571.13
2022-07-25T00:43:59.984Z,98575.69
2022-07-25T00:44:31.492Z,98575.69
2022-07-25T00:44:44.342Z,98574.84
2022-07-25T00:44:57.235Z,98574.16
2022-07-25T00:45:10.996Z,98574.31
2022-07-25T00:45:23.876Z,98571.78
2022-07-25T00:45:36.740Z,98570.94
2022-07-25T00:45:49.591Z,98574.66
2022-07-25T00:46:02.480Z,98570.94
2022-07-25T00:46:18.799Z,98575.34
2022-07-25T00:46:32.151Z,98574.66
2022-07-25T00:46:45.305Z,98569.41
2022-07-25T00:46:58.703Z,98572.97
2022-07-25T00:47:11.789Z,98572.97
2022-07-25T00:47:24.735Z,98573.81
2022-07-25T00:47:37.808Z,98569.22
2022-07-25T00:48:09.198Z,98572.62
2022-07-25T00:48:22.318Z,98570.09
2022-07-25T00:48:35.568Z,98571.94
2022-07-25T00:48:48.527Z,98576.37
2022-07-25T00:49:01.687Z,98569.75
2022-07-25T00:49:14.669Z,98578.75
2022-07-25T00:49:27.656Z,98577.03
2022-07-25T00:49:40.563Z,98570.94
2022-07-25T00:49:53.647Z,98572.78
2022-07-25T00:50:07.037Z,98570.09
2022-07-25T00:50:20.904Z,98568.37
2022-07-25T00:50:33.811Z,98567.53
2022-07-25T00:50:46.703Z,98578.56
2022-07-25T00:50:59.776Z,98573.31
2022-07-25T00:51:12.662Z,98569.03
2022-07-25T00:51:25.494Z,98569.88
2022-07-25T00:51:38.391Z,98568.00
2022-07-25T00:51:51.827Z,98573.31
2022-07-25T00:52:05.106Z,98567.69
2022-07-25T00:52:18.129Z,98568.72
2022-07-25T00:52:31.121Z,98573.31
2022-07-25T00:52:44.882Z,98569.88
2022-07-25T00:52:57.878Z,98566.31
2022-07-25T00:53:11.465Z,98571.91
2022-07-25T00:53:24.599Z,98577.16
2022-07-25T00:53:37.990Z,98570.88
2022-07-25T00:53:50.904Z,98570.03
2022-07-25T00:54:04.021Z,98571.06
2022-07-25T00:54:17.353Z,98572.59
2022-07-25T00:54:30.271Z,98565.47
2022-07-25T00:54:43.198Z,98579.03
2022-07-25T00:54:58.051Z,98568.84
2022-07-25T00:55:11.679Z,98571.28
2022-07-25T00:55:25.235Z,98572.28
2022-07-25T00:55:38.268Z,98572.12
2022-07-25T00:55:51.984Z,98571.09
2022-07-25T00:56:05.834Z,98571.09
2022-07-25T00:56:18.710Z,98567.69
2022-07-25T00:56:31.645Z,98567.69
2022-07-25T00:56:44.554Z,98570.59
2022-07-25T00:56:57.445Z,98572.12
2022-07-25T00:57:10.303Z,98565.84
2022-07-25T00:57:23.367Z,98574.16
2022-07-25T00:57:36.285Z,98572.12
2022-07-25T00:57:49.157Z,98571.09
2022-07-25T00:58:02.317Z,98567.87
2022-07-25T00:58:15.434Z,98575.31
2022-07-25T00:58:29.718Z,98566.31
2022-07-25T00:58:43.207Z,98568.19
2022-07-25T00:58:57.104Z,98570.88
2022-07-25T00:59:10.099Z,98569.88
2022-07-25T00:59:23.139Z,98575.31
2022-07-25T00:59:36.115Z,98575.31
2022-07-25T00:59:49.048Z,98568.34
2022-07-25T01:00:02.468Z,98571.75
2022-07-25T01:00:15.855Z,98574.28
2022-07-25T01:00:28.909Z,98565.47
2022-07-25T01:00:43.168Z,98571.06
2022-07-25T01:00:56.122Z,98572.25
2022-07-25T01:01:09.021Z,98573.78
2022-07-25T01:01:22.007Z,98571.75
2022-07-25T01:01:35.561Z,98575.31
2022-07-25T01:01:48.686Z,98571.56
2022-07-25T01:02:03.782Z,98569.19
2022-07-25T01:02:17.226Z,98566.97
2022-07-25T01:02:30.297Z,98572.56
2022-07-25T01:02:43.264Z,98567.84
2022-07-25T01:02:56.477Z,98579.53
2022-07-25T01:03:09.827Z,98570.53
2022-07-25T01:03:22.738Z,98568.50
2022-07-25T01:03:35.634Z,98574.63
2022-07-25T01:03:48.833Z,98570.88
2022-07-25T01:04:02.171Z,98572.75
2022-07-25T01:04:15.773Z,98567.50
2022-07-25T01:04:28.655Z,98570.22
2022-07-25T01:04:41.700Z,98573.09
2022-07-25T01:04:55.067Z,98570.22
2022-07-25T01:05:08.599Z,98570.22
2022-07-25T01:05:23.777Z,98565.78
2022-07-25T01:05:36.866Z,98568.50
2022-07-25T01:05:53.699Z,98562.22
2022-07-25T01:06:07.134Z,98571.06
2022-07-25T01:06:20.213Z,98568.34
2022-07-25T01:06:37.680Z,98561.22
2022-07-25T01:06:50.579Z,98570.53
2022-07-25T01:07:03.453Z,98574.97
2022-07-25T01:07:16.328Z,98567.66
2022-07-25T01:07:29.235Z,98563.09
2022-07-25T01:07:42.158Z,98562.22
2022-07-25T01:07:55.020Z,98571.22
2022-07-25T01:08:08.036Z,98567.66
2022-07-25T01:08:21.265Z,98564.94
2022-07-25T01:08:34.715Z,98567.50
2022-07-25T01:08:47.725Z,98563.94
2022-07-25T01:09:01.149Z,98569.38
2022-07-25T01:09:14.180Z,98569.53
2022-07-25T01:09:27.332Z,98574.28
2022-07-25T01:09:42.579Z,98575.97
2022-07-25T01:09:55.531Z,98562.41
2022-07-25T01:10:08.855Z,98559.00
2022-07-25T01:10:21.861Z,98562.56
2022-07-25T01:10:35.117Z,98562.03
2022-07-25T01:10:57.047Z,98568.00
2022-07-25T01:11:10.124Z,98572.88
2022-07-25T01:11:23.099Z,98565.75
2022-07-25T01:11:35.963Z,98575.75
2022-07-25T01:11:48.840Z,98570.16
2022-07-25T01:12:01.819Z,98560.19
2022-07-25T01:12:14.793Z,98568.47
2022-07-25T01:12:27.686Z,98571.06
2022-07-25T01:12:53.685Z,98573.44
2022-07-25T01:13:06.659Z,98569.31
2022-07-25T01:13:19.542Z,98558.47
2022-07-25T01:13:34.625Z,98571.19
2022-07-25T01:13:47.497Z,98571.06
2022-07-25T01:14:00.431Z,98564.44
2022-07-25T01:14:13.347Z,98570.88
2022-07-25T01:14:26.217Z,98574.28
2022-07-25T01:14:39.446Z,98564.44
2022-07-25T01:14:52.454Z,98569.88
2022-07-25T01:15:05.754Z,98561.03
2022-07-25T01:15:19.918Z,98567.44
2022-07-25T01:15:33.113Z,98564.06
2022-07-25T01:15:46.077Z,98557.25
2022-07-25T01:15:59.024Z,98568.81
2022-07-25T01:16:14.071Z,98564.91
2022-07-25T01:16:27.170Z,98563.22
2022-07-25T01:16:41.341Z,98559.63
2022-07-25T01:16:54.202Z,98558.47
2022-07-25T01:17:09.361Z,98567.78
2022-07-25T01:17:22.385Z,98569.50
2022-07-25T01:17:35.225Z,98564.22
2022-07-25T01:17:48.317Z,98564.91
2022-07-25T01:18:01.206Z,98563.22
2022-07-25T01:18:15.134Z,98564.38
2022-07-25T01:18:28.016Z,98565.25
2022-07-25T01:18:40.986Z,98567.78
2022-07-25T01:18:53.833Z,98565.91
2022-07-25T01:19:06.991Z,98568.47
2022-07-25T01:19:20.076Z,98557.59
2022-07-25T01:19:32.944Z,98564.91
2022-07-25T01:19:47.234Z,98567.44
2022-07-25T01:20:02.033Z,98563.88
2022-07-25T01:20:21.280Z,98563.03
2022-07-25T01:20:34.232Z,98566.94
2022-07-25T01:20:47.221Z,98567.78
2022-07-25T01:21:00.772Z,98569.31
2022-07-25T01:21:14.567Z,98573.91
2022-07-25T01:21:27.489Z,98567.78
2022-07-25T01:21:41.428Z,98568.13
2022-07-25T01:21:56.357Z,98565.56
2022-07-25T01:22:09.208Z,98564.03
2022-07-25T01:22:22.100Z,98565.16
2022-07-25T01:22:35.075Z,98569.59
2022-07-25T01:22:48.213Z,98566.59
2022-07-25T01:23:01.524Z,98570.47
2022-07-25T01:23:14.478Z,98568.63
2022-07-25T01:23:27.882Z,98570.31
2022-07-25T01:23:41.440Z,98564.56
2022-07-25T01:23:54.351Z,98559.81
2022-07-25T01:24:12.475Z,98564.06
2022-07-25T01:24:25.407Z,98569.50
2022-07-25T01:24:39.244Z,98568.81
2022-07-25T01:24:52.175Z,98563.72
2022-07-25T01:25:05.411Z,98566.41
2022-07-25T01:25:20.235Z,98570.00
2022-07-25T01:25:33.090Z,98566.41
2022-07-25T01:25:46.085Z,98564.56
2022-07-25T01:25:59.098Z,98568.13
2022-07-25T01:26:13.267Z,98569.81
2022-07-25T01:26:26.293Z,98567.28
2022-07-25T01:26:39.249Z,98567.59
2022-07-25T01:26:52.143Z,98561.34
2022-07-25T01:27:05.081Z,98558.63
2022-07-25T01:27:17.944Z,98566.00
2022-07-25T01:27:31.743Z,98559.91
2022-07-25T01:27:44.620Z,98562.63
2022-07-25T01:27:58.250Z,98566.91
2022-07-25T01:28:11.105Z,98558.88
2022-07-25T01:28:24.190Z,98565.91
2022-07-25T01:28:37.206Z,98556.75
2022-07-25T01:28:50.305Z,98562.19
2022-07-25T01:29:03.351Z,98555.91
2022-07-25T01:29:16.372Z,98561.84
2022-07-25T01:29:29.379Z,98562.84
2022-07-25T01:29:42.246Z,98559.28
2022-07-25T01:29:55.638Z,98566.41
2022-07-25T01:30:10.217Z,98563.72
2022-07-25T01:30:23.489Z,98563.88
2022-07-25T01:30:36.594Z,98564.72
2022-07-25T01:30:49.576Z,98557.03
2022-07-25T01:31:02.668Z,98560.75
2022-07-25T01:31:16.128Z,98557.88
2022-07-25T01:31:29.290Z,98562.44
2022-07-25T01:31:42.355Z,98557.88
2022-07-25T01:31:56.171Z,98565.34
2022-07-25T01:32:09.151Z,98558.88
2022-07-25T01:32:22.218Z,98565.34
2022-07-25T01:32:40.052Z,98561.34
2022-07-25T01:32:53.031Z,98563.72
2022-07-25T01:33:07.022Z,98557.25
2022-07-25T01:33:21.009Z,98557.94
2022-07-25T01:33:33.885Z,98553.19
2022-07-25T01:33:46.826Z,98555.06
2022-07-25T01:33:59.707Z,98561.50
2022-07-25T01:34:13.089Z,98564.38
2022-07-25T01:34:26.133Z,98560.81
2022-07-25T01:34:39.072Z,98554.72
2022-07-25T01:34:51.983Z,98551.16
2022-07-25T01:35:05.827Z,98557.59
2022-07-25T01:35:18.926Z,98558.63
2022-07-25T01:35:31.819Z,98555.91
2022-07-25T01:35:45.087Z,98564.72
2022-07-25T01:35:58.040Z,98560.31
2022-07-25T01:36:11.144Z,98554.03
2022-07-25T01:36:24.078Z,98558.75
2022-07-25T01:36:36.951Z,98562.44
2022-07-25T01:36:49.788Z,98558.75
2022-07-25T01:37:03.631Z,98558.03
2022-07-25T01:37:16.533Z,98557.03
2022-07-25T01:37:31.436Z,98556.16
2022-07-25T01:37:46.066Z,98559.59
2022-07-25T01:37:59.387Z,98554.16
2022-07-25T01:38:12.408Z,98549.62
2022-07-25T01:38:25.317Z,98553.19
2022-07-25T01:38:38.415Z,98558.19
2022-07-25T01:38:55.367Z,98553.97
2022-07-25T01:39:08.366Z,98559.72
2022-07-25T01:39:21.679Z,98552.25
2022-07-25T01:39:34.817Z,98559.22
2022-07-25T01:39:47.907Z,98548.53
2022-07-25T01:40:00.827Z,98552.25
2022-07-25T01:40:14.345Z,98556.66
2022-07-25T01:40:27.365Z,98553.78
2022-07-25T01:40:40.320Z,98553.78
2022-07-25T01:40:53.243Z,98555.16
2022-07-25T01:41:06.372Z,98558.75
2022-07-25T01:41:22.673Z,98555.16
2022-07-25T01:41:35.875Z,98553.31
2022-07-25T01:41:48.779Z,98553.31
2022-07-25T01:42:04.164Z,98551.31
2022-07-25T01:42:17.279Z,98545.72
2022-07-25T01:42:30.130Z,98557.75
2022-07-25T01:42:44.331Z,98554.16
2022-07-25T01:42:57.318Z,98551.91
2022-07-25T01:43:10.681Z,98554.31
2022-07-25T01:43:23.743Z,98557.03
2022-07-25T01:43:37.003Z,98554.16
2022-07-25T01:43:50.130Z,98555.06
2022-07-25T01:44:07.303Z,98552.16
2022-07-25T01:44:20.455Z,98554.16
2022-07-25T01:44:33.314Z,98552.78
2022-07-25T01:44:46.349Z,98553.44
2022-07-25T01:44:59.469Z,98552.44
2022-07-25T01:45:12.495Z,98548.88
2022-07-25T01:45:25.470Z,98550.75
2022-07-25T01:45:38.366Z,98550.91
2022-07-25T01:45:51.305Z,98550.06
2022-07-25T01:46:04.350Z,98553.78
2022-07-25T01:46:17.737Z,98550.41
2022-07-25T01:46:31.658Z,98551.25
2022-07-25T01:46:44.648Z,98551.06
2022-07-25T01:46:57.977Z,98549.38
2022-07-25T01:47:10.822Z,98551.41
2022-07-25T01:47:23.873Z,98545.66
2022-07-25T01:47:37.128Z,98551.06
2022-07-25T01:47:50.053Z,98545.81
2022-07-25T01:48:03.130Z,98551.25
2022-07-25T01:48:16.025Z,98554.63
2022-07-25T01:48:30.286Z,98554.47
2022-07-25T01:48:43.394Z,98553.63
2022-07-25T01:48:56.517Z,98544.78
2022-07-25T01:49:09.595Z,98546.66
2022-07-25T01:49:22.523Z,98553.78
2022-07-25T01:49:35.534Z,98547.69
2022-07-25T01:49:48.418Z,98554.97
2022-07-25T01:50:01.552Z,98550.22
2022-07-25T01:50:14.556Z,98553.97
2022-07-25T01:50:27.908Z,98551.41
2022-07-25T01:50:40.769Z,98560.22
2022-07-25T01:50:53.725Z,98555.81
2022-07-25T01:51:08.211Z,98550.41
2022-07-25T01:51:24.091Z,98549.38
2022-07-25T01:51:39.412Z,98549.38
2022-07-25T01:51:53.007Z,98549.53
2022-07-25T01:52:06.254Z,98553.09
2022-07-25T01:52:19.267Z,98554.81
2022-07-25T01:52:32.154Z,98557.34
2022-07-25T01:52:45.051Z,98551.06
2022-07-25T01:52:57.920Z,98553.78
2022-07-25T01:53:10.779Z,98549.22
2022-07-25T01:53:23.694Z,98552.09
2022-07-25T01:53:37.682Z,98552.25
2022-07-25T01:53:51.330Z,98552.44
2022-07-25T01:54:04.651Z,98551.41
2022-07-25T01:54:22.509Z,98549.72
2022-07-25T01:54:35.557Z,98557.00
2022-07-25T01:54:52.845Z,98552.25
2022-07-25T01:55:06.689Z,98548.53
2022-07-25T01:55:20.192Z,98554.81
2022-07-25T01:55:33.286Z,98553.28
2022-07-25T01:55:50.005Z,98555.13
2022-07-25T01:56:08.404Z,98550.56
2022-07-25T01:56:23.044Z,98549.72
2022-07-25T01:56:36.730Z,98549.88
2022-07-25T01:56:49.643Z,98552.03
2022-07-25T01:57:02.524Z,98560.72
2022-07-25T01:57:15.405Z,98553.28
2022-07-25T01:57:30.672Z,98553.28
2022-07-25T01:57:49.426Z,98554.81
2022-07-25T01:58:03.432Z,98559.38
2022-07-25T01:58:16.279Z,98545.97
2022-07-25T01:58:30.517Z,98546.81
2022-07-25T01:58:43.574Z,98547.69
2022-07-25T01:58:56.472Z,98545.97
2022-07-25T01:59:09.378Z,98551.56
2022-07-25T01:59:22.267Z,98553.44
2022-07-25T01:59:39.251Z,98540.16
2022-07-25T01:59:52.109Z,98544.75
2022-07-25T02:00:06.307Z,98546.31
2022-07-25T02:00:19.318Z,98545.47
2022-07-25T02:00:36.370Z,98550.03
2022-07-25T02:00:57.970Z,98551.19
2022-07-25T02:01:10.909Z,98550.03
2022-07-25T02:01:23.937Z,98542.88
2022-07-25T02:01:37.236Z,98547.31
2022-07-25T02:01:51.272Z,98540.34
2022-07-25T02:02:04.479Z,98544.75
2022-07-25T02:02:17.404Z,98543.22
2022-07-25T02:02:30.753Z,98541.84
2022-07-25T02:02:43.991Z,98540.84
2022-07-25T02:03:15.247Z,98546.75
2022-07-25T02:03:32.809Z,98543.34
2022-07-25T02:03:45.865Z,98533.03
2022-07-25T02:03:59.165Z,98542.81
2022-07-25T02:04:12.410Z,98544.50
2022-07-25T02:04:25.481Z,98543.50
2022-07-25T02:04:38.495Z,98537.37
2022-07-25T02:04:51.557Z,98535.34
2022-07-25T02:05:04.796Z,98539.47
2022-07-25T02:05:17.708Z,98545.91
2022-07-25T02:05:30.588Z,98541.34
2022-07-25T02:05:43.454Z,98540.31
2022-07-25T02:05:57.592Z,98538.75
2022-07-25T02:06:10.476Z,98540.94
2022-07-25T02:06:23.375Z,98544.00
2022-07-25T02:06:36.309Z,98537.19
2022-07-25T02:06:49.664Z,98543.16
2022-07-25T02:07:02.690Z,98541.78
2022-07-25T02:07:15.562Z,98538.41
2022-07-25T02:07:28.439Z,98541.97
2022-07-25T02:07:41.341Z,98546.38
2022-07-25T02:07:54.244Z,98544.50
2022-07-25T02:08:07.169Z,98545.03
2022-07-25T02:08:23.281Z,98540.47
2022-07-25T02:08:36.166Z,98552.66
2022-07-25T02:08:49.076Z,98544.00
2022-07-25T02:09:03.702Z,98539.09
2022-07-25T02:09:16.581Z,98539.94
2022-07-25T02:09:29.520Z,98539.78
2022-07-25T02:09:42.523Z,98538.75
2022-07-25T02:09:57.013Z,98545.91
2022-07-25T02:10:10.123Z,98541.16
2022-07-25T02:10:22.999Z,98545.91
2022-07-25T02:10:36.004Z,98536.03
2022-07-25T02:10:50.147Z,98541.62
2022-07-25T02:11:03.076Z,98540.09
2022-07-25T02:11:16.094Z,98537.37
2022-07-25T02:11:29.357Z,98536.38
2022-07-25T02:11:42.367Z,98542.12
2022-07-25T02:11:55.261Z,98540.59
2022-07-25T02:12:08.493Z,98536.03
2022-07-25T02:12:21.469Z,98547.72
2022-07-25T02:12:34.533Z,98541.44
2022-07-25T02:12:52.322Z,98537.03
2022-07-25T02:13:05.660Z,98536.88
2022-07-25T02:13:19.386Z,98543.84
2022-07-25T02:13:32.295Z,98543.16
2022-07-25T02:13:45.177Z,98543.31
2022-07-25T02:13:58.216Z,98538.56
2022-07-25T02:14:11.095Z,98534.00
2022-07-25T02:14:24.946Z,98541.97
2022-07-25T02:14:37.897Z,98545.19
2022-07-25T02:14:50.775Z,98538.75
2022-07-25T02:15:03.818Z,98540.47
2022-07-25T02:15:16.901Z,98539.59
2022-07-25T02:15:29.771Z,98539.59
2022-07-25T02:15:42.804Z,98543.34
2022-07-25T02:15:56.060Z,98536.38
2022-07-25T02:16:08.929Z,98545.69
2022-07-25T02:16:28.871Z,98536.88
2022-07-25T02:16:42.401Z,98543.47
2022-07-25T02:16:55.369Z,98536.03
2022-07-25T02:17:08.462Z,98539.75
2022-07-25T02:17:21.701Z,98540.59
2022-07-25T02:17:50.370Z,98540.44
2022-07-25T02:18:03.378Z,98541.12
2022-07-25T02:18:16.258Z,98543.31
2022-07-25T02:18:30.042Z,98538.06
2022-07-25T02:18:44.006Z,98536.03
2022-07-25T02:18:57.021Z,98534.16
2022-07-25T02:19:09.906Z,98537.03
2022-07-25T02:19:22.858Z,98534.62
2022-07-25T02:19:36.354Z,98543.59
2022-07-25T02:19:49.258Z,98539.91
2022-07-25T02:20:02.304Z,98544.31
2022-07-25T02:20:15.471Z,98536.34
2022-07-25T02:20:28.327Z,98536.03
2022-07-25T02:20:41.693Z,98538.72
2022-07-25T02:20:54.555Z,98539.91
2022-07-25T02:21:14.398Z,98539.38
2022-07-25T02:21:27.670Z,98539.38
2022-07-25T02:21:40.545Z,98538.34
2022-07-25T02:21:53.503Z,98545.81
2022-07-25T02:22:06.738Z,98539.34
2022-07-25T02:22:19.992Z,98540.88
2022-07-25T02:22:32.877Z,98543.06
2022-07-25T02:22:54.195Z,98547.78
2022-07-25T02:23:07.099Z,98542.00
2022-07-25T02:23:20.177Z,98542.91
2022-07-25T02:23:33.657Z,98548.16
2022-07-25T02:23:46.748Z,98540.03
2022-07-25T02:23:59.687Z,98537.16
2022-07-25T02:24:12.723Z,98537.16
2022-07-25T02:24:25.802Z,98548.84
2022-07-25T02:24:38.741Z,98544.44
2022-07-25T02:24:51.662Z,98537.81
2022-07-25T02:25:04.922Z,98541.00
2022-07-25T02:25:18.301Z,98534.72
2022-07-25T02:25:31.306Z,98543.00
2022-07-25T02:25:45.247Z,98543.31
2022-07-25T02:25:58.085Z,98542.47
2022-07-25T02:26:12.090Z,98540.63
2022-07-25T02:26:25.005Z,98543.84
2022-07-25T02:26:38.015Z,98540.44
2022-07-25T02:26:50.976Z,98546.72
2022-07-25T02:27:04.941Z,98544.41
2022-07-25T02:27:17.778Z,98544.94
2022-07-25T02:27:30.700Z,98545.44
2022-07-25T02:27:43.554Z,98544.09
2022-07-25T02:27:56.946Z,98550.03
2022-07-25T02:28:10.772Z,98543.75
2022-07-25T02:28:23.942Z,98548.00
2022-07-25T02:28:36.889Z,98543.59
2022-07-25T02:28:50.134Z,98549.81
2022-07-25T02:29:03.453Z,98544.41
2022-07-25T02:29:16.383Z,98545.09
2022-07-25T02:29:29.414Z,98553.75
2022-07-25T02:29:48.169Z,98541.72
2022-07-25T02:30:01.017Z,98548.66
2022-07-25T02:30:13.966Z,98555.25
2022-07-25T02:30:27.878Z,98552.16
2022-07-25T02:30:41.114Z,98546.53
2022-07-25T02:30:54.315Z,98546.38
2022-07-25T02:31:07.651Z,98552.63
2022-07-25T02:31:20.634Z,98548.38
2022-07-25T02:31:33.560Z,98547.38
2022-07-25T02:31:46.442Z,98549.28
2022-07-25T02:32:01.666Z,98545.94
2022-07-25T02:32:14.513Z,98547.91
2022-07-25T02:32:27.407Z,98549.00
2022-07-25T02:32:40.268Z,98552.22
2022-07-25T02:32:53.264Z,98550.69
2022-07-25T02:33:06.170Z,98555.66
2022-07-25T02:33:19.064Z,98547.03
2022-07-25T02:33:31.926Z,98553.31
2022-07-25T02:33:44.901Z,98555.34
2022-07-25T02:33:57.854Z,98546.53
2022-07-25T02:34:10.721Z,98549.22
2022-07-25T02:34:23.782Z,98555.66
2022-07-25T02:34:37.759Z,98549.31
2022-07-25T02:34:50.663Z,98547.78
2022-07-25T02:35:05.412Z,98548.62
2022-07-25T02:35:26.432Z,98554.25
2022-07-25T02:35:39.333Z,98553.31
2022-07-25T02:35:52.245Z,98553.16
2022-07-25T02:36:05.257Z,98554.50
2022-07-25T02:36:18.107Z,98551.09
2022-07-25T02:36:35.241Z,98549.16
2022-07-25T02:36:48.337Z,98555.91
2022-07-25T02:37:01.205Z,98554.91
2022-07-25T02:37:14.111Z,98549.84
2022-07-25T02:37:27.125Z,98553.03
2022-07-25T02:37:40.124Z,98551.53
2022-07-25T02:37:53.176Z,98550.53
2022-07-25T02:38:06.242Z,98542.41
2022-07-25T02:38:22.005Z,98553.72
2022-07-25T02:38:35.344Z,98552.56
2022-07-25T02:38:48.401Z,98553.25
2022-07-25T02:39:01.283Z,98550.94
2022-07-25T02:39:14.129Z,98558.06
2022-07-25T02:39:26.986Z,98555.50